Weather at Best Western Red Jacket Inn Heliport [CLOSED]

Public forecast

Using degrees Fahrenheit for public forecast. Weather courtesy of forecast.io.

Closest aviation weather report (METAR) to Best Western Red Jacket Inn Heliport

Closest report is Niagara Falls International Airport, 2.7 nm (5.0 km) NE.

2024/05/27 23:53 (retrieved 1 hour ago)

KIAG 272353Z 22015G23KT 10SM FEW043 20/13 A2957 RMK AO2 PK WND 21029/2257 SLP010 T02000133 10250 20200 53020

Closest aviation forecast (TAF) to Best Western Red Jacket Inn Heliport

Closest forecast is Niagara District Airport, 10.9 nm (20.1 km) NW.

2024/05/27 20:00 (retrieved 5 hours ago)

TAF CYSN 271940Z 2720/2801 23020G30KT P6SM BKN030 OVC120 TEMPO 2720/2801 BKN020 OVC120 BECMG 2722/2724 23015KT RMK NXT FCST BY 281300Z